AirNav   TITAN Aviation Fuels
 
 1394 users online  

4MO7 Crop Care Airport
Mound City, Missouri, USA

GOING TO MOUND CITY?


FAA INFORMATION EFFECTIVE 01 DECEMBER 2022

Location

FAA Identifier: 4MO7
Lat/Long: 40-08-29.0000N 095-14-27.0000W
40-08.483333N 095-14.450000W
40.1413889,-95.2408333
(estimated)
Elevation: 875 ft. / 267 m (estimated)
Variation: 05E (1990)
From city: 1 mile N of MOUND CITY, MO
Time zone: UTC -6 (UTC -5 during Daylight Saving Time)
Zip code: 64470

Airport Operations

Airport use: Private use. Permission required prior to landing
Activation date: 08/1992
Control tower: no
ARTCC: KANSAS CITY CENTER
FSS: COLUMBIA FLIGHT SERVICE STATION
Attendance: CONTINUOUS
Wind indicator: yes
Segmented circle: no

Airport Communications

WX ASOS at FNB (17 nm W): 119.275 (402-245-5948)
WX AWOS-3PT at EVU (20 nm NE): 118.225 (660-562-9980)

Nearby radio navigation aids

VOR radial/distance  VOR name  Freq  Var
STJr299/18.1ST JOSEPH VORTAC115.5008E

 
NDB name  Hdg/Dist  Freq  Var  ID
AMAZON311/21.723304EAZN .- --.. -.
NEBRASKA CITY129/39.734705EAFK .- ..-. -.-

Airport Services

Runway Information

Runway 15/33

Dimensions: 2200 x 40 ft. / 671 x 12 m
Surface: gravel
RUNWAY 15  RUNWAY 33
Traffic pattern: leftleft

Airport Ownership and Management from official FAA records

Ownership: Privately-owned
Owner: KURTZ RURAL AVIATION
P.O. BOX 44
MOUND CITY, MO 64470
Phone 816-442-5611
Manager: GAROLD KURTZ
P.O. BOX 44
MOUND CITY, MO 64470
Phone 816-442-5611

Additional Remarks

FOR CD CTC ST JOSEPH APCH AT 816-236-3035. WHEN ST JOSEPH APCH IS CLSD, CTC KANSAS CITY ARTCC AT 913-254-8508.

Instrument Procedures

There are no published instrument procedures at 4MO7.

Some nearby airports with instrument procedures:

KFNB - Brenner Field Airport (17 nm W)
K57 - Gould Peterson Municipal Airport (19 nm N)
KEVU - Northwest Missouri Regional Airport (20 nm NE)
KSTJ - Rosecrans Memorial Airport (27 nm SE)
K01 - Farington Field Airport (29 nm NW)
 
Loc | Ops | Rwys | IFR | FBO | Links
Com | Nav | Svcs | Stats | Notes
Area around 4MO7 (Crop Care Airport)
 
Road maps at: MapQuest Bing Google
 
Aerial photo
No photo
 
Sectional chart

 
Airport distance calculator
Flying to Crop Care Airport? Find the distance to fly.

From to 4MO7

Sunrise and sunset
Times for 02-Dec-2022
 Local
(UTC-6)
 Zulu
(UTC)
Morning civil twilight06:5612:56
Sunrise07:2613:26
Sunset16:5522:55
Evening civil twilight17:2523:25

Current date and time
Zulu (UTC)  02-Dec-2022 17:23:42
Local (UTC-6)  02-Dec-2022 11:23:42
 
METAR
KFNB 
16nm W 
021653Z AUTO 19016G28KT 10SM CLR 13/07 A2961 RMK AO2 PK WND 21034/1628 SLP029 T01280072
KEVU 
20nm NE 
021655Z AUTO 20026G34KT 10SM SCT021 12/07 A2961 RMK AO2 T01290075
KSTJ 
27nm SE 
021653Z 20026G35KT 10SM BKN024 13/07 A2965 RMK AO2 PK WND 19038/1605 SLP041 T01280067
TAF
KSTJ 
27nm SE 
021227Z 0212/0312 19020G30KT P6SM SCT030 FM021500 20030G40KT P6SM BKN015 FM022200 23015KT P6SM FEW020 SCT200 FM030200 33030G40KT P6SM SCT020 FM030900 33013KT P6SM SKC
NOTAMs
Click for the latest NOTAMs
NOTAMs are issued by the DoD/FAA and will open in a separate window not controlled by AirNav.

 

 
 

Would you like to see your business listed on this page?

 If your business provides an interesting product or service to pilots, flight crews, aircraft, or users of the Crop Care Airport, you should consider listing it here.  To start the listing process, click on the button below
 
Add a business
 

Other Pages about Crop Care Airport

Update a link
 
Copyright © AirNav, LLC. All rights reserved. Privacy Policy  Contact